»·PEaware :: N9617W 5CA4-KRAL

N9617W :: 5CA4-KRAL

FLIGHT INFORMATION

Flight Status: Arrived
Operator: Privately registered:
United States
More flights under this callsign
Pilot: Patrick W. (20081)
Aircraft: PIPER PA-28 CHEROKEE ARCHER
(P28A)
More flights by this aircraft type
Origin: 5CA4 Ludlow
United States
Destination: KRAL Riverside Mun
United States
More flights between these airports :: More routes between these airports
Route:
File this flight plan on PilotEdge
Remarks: CAT-11 & I-8 Rated
Altitude:
(Current/Filed)
8,500ft
Speed:
(Current/Filed)
140kts
Departed: 14-Sep-18 10:03 AM
Arrived: 14-Sep-18 11:00 AM
Distance/Time
Traveled:
80nm/0:57
Distance/Time
To Go:
Arrived

Flight Plot

Page will automatically refresh every two minutes.

Flight plan parsing failed; only flown route is shown


Map Options




Map Legend


Flown Route
Filed Route
Departure Airport
Arrival Airport
Navaid (VOR, NDB)
Fix

Horizontal Profiles

Position Reports

Time Latitude Longitude Heading Altitude Ground
Speed
14-Sep-18 09:54 34.752781 -116.150334 181 1465ft 0kts
14-Sep-18 09:55 34.752781 -116.150334 181 1465ft 0kts
14-Sep-18 09:56 34.752781 -116.150334 181 1465ft 0kts
14-Sep-18 09:57 34.752781 -116.150334 181 1465ft 0kts
14-Sep-18 09:58 34.752781 -116.150334 181 1465ft 0kts
14-Sep-18 09:59 34.752781 -116.150334 181 1465ft 0kts
14-Sep-18 10:00 34.752781 -116.150334 181 1465ft 0kts
14-Sep-18 10:01 34.752781 -116.150334 181 1465ft 0kts
14-Sep-18 10:02 34.752781 -116.150334 181 1465ft 0kts
14-Sep-18 10:03 34.752781 -116.150334 181 1465ft 0kts
14-Sep-18 10:04 34.752736 -116.150334 177 1465ft 2kts
14-Sep-18 10:05 34.753417 -116.155927 275 1499ft 73kts
14-Sep-18 10:06 34.752294 -116.180226 257 2292ft 80kts
14-Sep-18 10:07 34.746448 -116.206274 257 3126ft 80kts
14-Sep-18 10:08 34.743359 -116.232674 270 3942ft 78kts
14-Sep-18 10:09 34.745948 -116.258402 269 4714ft 79kts
14-Sep-18 10:10 34.751193 -116.283677 273 5499ft 78kts
14-Sep-18 10:11 34.759728 -116.307604 305 6234ft 82kts
14-Sep-18 10:12 34.774250 -116.329715 299 6938ft 85kts
14-Sep-18 10:13 34.787085 -116.354295 293 7608ft 86kts
14-Sep-18 10:14 34.797477 -116.380924 286 8231ft 87kts
14-Sep-18 10:15 34.806900 -116.411625 282 8560ft 116kts
14-Sep-18 10:16 34.816716 -116.450641 283 8433ft 114kts
14-Sep-18 10:17 34.825353 -116.486994 279 8444ft 112kts
14-Sep-18 10:18 34.826891 -116.523375 244 8506ft 106kts
14-Sep-18 10:19 34.816620 -116.557290 246 8546ft 106kts
14-Sep-18 10:20 34.804995 -116.590528 242 8567ft 106kts
14-Sep-18 10:21 34.800602 -116.626535 265 8582ft 110kts
14-Sep-18 10:22 34.809138 -116.661972 282 8619ft 113kts
14-Sep-18 10:23 34.806285 -116.699455 253 8530ft 113kts
14-Sep-18 10:24 34.801773 -116.737249 256 8506ft 112kts
14-Sep-18 10:25 34.796298 -116.774005 253 8505ft 109kts
14-Sep-18 10:26 34.785741 -116.807921 227 8489ft 105kts
14-Sep-18 10:27 34.762988 -116.829307 217 8499ft 103kts
14-Sep-18 10:28 34.743173 -116.854056 237 8525ft 105kts
14-Sep-18 10:29 34.728129 -116.886567 240 8575ft 113kts
14-Sep-18 10:30 34.707888 -116.917450 230 8511ft 119kts
14-Sep-18 10:31 34.687711 -116.949541 230 8465ft 120kts
14-Sep-18 10:32 34.668047 -116.981842 225 8476ft 116kts
14-Sep-18 10:33 34.643744 -117.008205 220 8454ft 117kts
14-Sep-18 10:34 34.620134 -117.035366 222 8439ft 118kts
14-Sep-18 10:35 34.596427 -117.062468 219 8453ft 116kts
14-Sep-18 10:36 34.573304 -117.089131 222 8516ft 114kts
14-Sep-18 10:37 34.550988 -117.117037 224 8531ft 116kts
14-Sep-18 10:38 34.528860 -117.146178 228 8507ft 118kts
14-Sep-18 10:39 34.509142 -117.177903 229 8499ft 118kts
14-Sep-18 10:40 34.488556 -117.208000 212 8515ft 116kts
14-Sep-18 10:41 34.461788 -117.229922 217 8497ft 116kts
14-Sep-18 10:42 34.438793 -117.257565 227 8534ft 114kts
14-Sep-18 10:43 34.418920 -117.287912 225 8542ft 117kts
14-Sep-18 10:44 34.394808 -117.313651 194 8497ft 118kts
14-Sep-18 10:45 34.362756 -117.318632 188 8497ft 118kts
14-Sep-18 10:46 34.329873 -117.319862 180 8366ft 127kts
14-Sep-18 10:47 34.296336 -117.320578 186 8352ft 121kts
14-Sep-18 10:48 34.263719 -117.320599 181 7706ft 115kts
14-Sep-18 10:49 34.232761 -117.319623 179 6721ft 113kts
14-Sep-18 10:50 34.201055 -117.314303 182 5645ft 118kts
14-Sep-18 10:51 34.168767 -117.311831 173 4652ft 124kts
14-Sep-18 10:52 34.136417 -117.305187 172 3849ft 115kts
14-Sep-18 10:53 34.105193 -117.300167 174 3458ft 112kts
14-Sep-18 10:54 34.073462 -117.298615 174 3660ft 123kts
14-Sep-18 10:55 34.038907 -117.293476 187 3718ft 123kts
14-Sep-18 10:56 34.013818 -117.316312 239 3004ft 116kts
14-Sep-18 10:57 33.997704 -117.348647 244 2013ft 108kts
14-Sep-18 10:58 33.979524 -117.370558 206 2028ft 89kts
14-Sep-18 10:59 33.956864 -117.383880 207 2062ft 83kts
14-Sep-18 11:00 33.944310 -117.402788 290 1521ft 79kts
14-Sep-18 11:01 33.948798 -117.425473 285 1019ft 66kts
14-Sep-18 11:02 33.952076 -117.442634 282 787ft 26kts
14-Sep-18 11:03 33.951737 -117.443646 191 781ft 3kts
14-Sep-18 11:04 33.951092 -117.444708 290 773ft 0kts
14-Sep-18 11:05 33.951092 -117.444708 290 773ft 0kts
14-Sep-18 11:06 33.951092 -117.444708 290 773ft 0kts
14-Sep-18 11:07 33.951092 -117.444708 290 773ft 0kts
14-Sep-18 11:08 33.951092 -117.444708 290 773ft 0kts
14-Sep-18 11:09 33.951092 -117.444708 290 773ft 0kts
14-Sep-18 11:10 33.951092 -117.444708 290 773ft 0kts
14-Sep-18 11:11 33.951092 -117.444708 290 773ft 0kts
14-Sep-18 11:12 33.951092 -117.444708 290 773ft 0kts
14-Sep-18 11:13 33.951092 -117.444708 290 773ft 0kts
14-Sep-18 11:14 33.951092 -117.444708 290 773ft 0kts
14-Sep-18 11:15 33.951092 -117.444708 290 773ft 0kts
14-Sep-18 11:16 33.951092 -117.444708 290 773ft 0kts
14-Sep-18 11:17 33.951092 -117.444708 290 773ft 0kts

Navigation Log

Ident Type
Flight plan parsing failed, navigation log unavailable